NY Terminal Aviation Weather Discussion (AFD) - Prepared: 1034 PM EDT THU SEP 18 2014
HIGH PRESSURE BUILDS IN THROUGH FRIDAY. MAINLY VFR CONDITIONS ARE
EXPECTED DURING THE TAF PERIOD. THERE ARE SOME INDICATIONS OF SOME
POSSIBLE MVFR STRATUS FRIDAY BUT THERE IS MUCH UNCERTAINTY...SO
KEPT COVERAGE TO FEW-SCT.

VARIABLE DIRECTION TO WINDS WHICH ARE LESS THAN 10 KT. THESE
SHOULD ALL TURN N/NE AND THEN INCREASE WHILE GAINING MORE OF AN
EASTWARD COMPONENT OVERNIGHT AND INTO FRIDAY. WIND SPEEDS WILL
INCREASE TO 10-15 KT WITH GUSTS UP TO NEAR 20 KT.

FOR OVERNIGHT AND FRIDAY...GUST START AND END TIME COULD VARY BY
1-3 HOURS.

5 Day General Aviation Outlook:

.OUTLOOK FOR 18Z FRIDAY THROUGH TUESDAY...
.FRIDAY-SUNDAY...VFR. 
.SUNDAY NIGHT-MONDAY...CHANCE OF MVFR OR BELOW WITH SCATTERED
SHOWERS.
.MONDAY NIGHT-TUESDAY...VFR.


NY Metro Terminal Aviation Weather Summary: (Explanation of Color Coding)
NOTE: All Wind Directions are TRUE (add 13 degrees for magnetic directions). Tail and Crosswind Calculations do account for the magnetic deviation of runways.

Click on the Airport Below for Specific Information at that Terminal

TAF Overview JFK TAF LGA TAF EWR TAF TEB TAF HPN TAF ISP TAF

Jump to AirSpace Impacts Section Condensed "lite" version of SPA page
**************************************************************************************
KJFK Terminal Weather: (Wind Directions Are True, Except Where Noted, ADD 13 degrees for Magnetic)

5MIN KJFK 190535Z 02010KT 10SM FEW075 17/11 A3014 -180 
     67 0 030/10 RMK AO2
5MIN KJFK 190530Z 02011KT 10SM FEW075 17/11 A3014 -180 
     67 0 030/11 RMK AO2
********************************************
****        MAGNETIC DIRECTIONS         ****
********************************************
KJFK 09/19/2014 05:49:32 GMT 020 10 KT
KJFK 09/19/2014 05:47:32 GMT 020 08 KT
KJFK 09/19/2014 05:45:32 GMT 020 08 KT
KJFK 09/19/2014 05:43:32 GMT 020 09 KT
KJFK 09/19/2014 05:41:32 GMT 020 08 KT
KJFK 09/19/2014 05:39:32 GMT 020 08 KT
KJFK 09/19/2014 05:37:33 GMT 020 08 KT
KJFK 09/19/2014 05:35:33 GMT 030 08 KT
KJFK 09/19/2014 05:33:33 GMT 030 09 KT
KJFK 09/19/2014 05:31:33 GMT 020 08 KT
SAUS70 KJFK 190500 RRA
METAR KJFK 190451Z 02009KT 10SM FEW075 17/10 A3012 RMK AO2 SLP200
     T01720100 402560139
FTNA35 KJFK 190239 RRB
KJFK 190230Z 1903/2006 VRB04KT P6SM SCT090
     FM190400 36006KT P6SM SCT090
     FM190600 01012G17KT P6SM SCT070
     FM191200 04013G18KT P6SM FEW030 SCT050
     FM191800 09014KT P6SM FEW035 FEW250
     FM192100 13013KT P6SM SCT035 SCT250
     FM200300 14008KT P6SM SCT035 SCT250
KJFK Forecaster Comments Not Available at This Time
jfk

JFK Hourly Forecast Temperature (C)

JFK Hourly TMPS
**************************************************************************************
KLGA Terminal Weather: (Wind Directions Are True, Except Where Noted, ADD 13 degrees for Magnetic)

5MIN KLGA 190535Z 03009KT 10SM CLR 17/10 A3014 -170 64 
     0 040/09 RMK AO2
5MIN KLGA 190530Z 02009KT 10SM CLR 17/10 A3014 -170 64 
     0 030/09 RMK AO2
********************************************
****        MAGNETIC DIRECTIONS         ****
********************************************
KLGA 09/19/2014 05:49:52 GMT 050 11 KT
KLGA 09/19/2014 05:47:52 GMT 050 10 KT
KLGA 09/19/2014 05:45:51 GMT 050 11 KT
KLGA 09/19/2014 05:43:51 GMT 050 10 KT
KLGA 09/19/2014 05:41:51 GMT 050 10 KT
KLGA 09/19/2014 05:40:01 GMT 050 10 KT
KLGA 09/19/2014 05:38:00 GMT 050 10 KT
KLGA 09/19/2014 05:35:51 GMT 040 10 KT
KLGA 09/19/2014 05:33:51 GMT 050 09 KT
KLGA 09/19/2014 05:32:01 GMT 050 11 KT
SAUS70 KLGA 190500
METAR KLGA 190451Z 04009KT 10SM CLR 17/10 A3013 RMK AO2 SLP201 T01720100
     402390150
FTUS80 KLGA 190233 AAB
KLGA 190230Z 1903/1924 04008KT P6SM SCT090
     FM190600 03012G18KT P6SM SCT070
     FM191200 05012G17KT P6SM FEW030 SCT050
     FM191800 08014KT P6SM FEW035 FEW250
     FM192100 13013KT P6SM SCT035 SCT250
KLGA Forecaster Comments Not Available at This Time
lga


**************************************************************************************

KEWR Terminal Weather: (Wind Directions Are True, Except Where Noted, ADD 13 degrees for Magnetic)

5MIN KEWR 190545Z 02011KT 10SM FEW090 16/10 A3015 -180 
     69 -100 030/11 RMK AO2 SLP207 T01560100 10222 20156 51021
5MIN KEWR 190540Z 02010KT 10SM FEW090 16/10 A3014 -180 
     69 -100 030/10 RMK AO2
********************************************
****        MAGNETIC DIRECTIONS         ****
********************************************
KEWR 09/19/2014 05:48:56 GMT 040 10 G14KT
KEWR 09/19/2014 05:46:56 GMT 040 10 G14KT
KEWR 09/19/2014 05:45:18 GMT 040 10 G14KT
KEWR 09/19/2014 05:42:56 GMT 040 09 G14KT
KEWR 09/19/2014 05:40:56 GMT 040 11 KT
KEWR 09/19/2014 05:39:18 GMT 040 09 G14KT
KEWR 09/19/2014 05:36:56 GMT 030 11 KT
KEWR 09/19/2014 05:34:56 GMT 040 10 KT
KEWR 09/19/2014 05:33:18 GMT 030 11 KT
KEWR 09/19/2014 05:30:56 GMT 040 11 KT
SAUS70 KEWR 190500
METAR KEWR 190451Z 01010KT 10SM FEW090 16/10 A3013 RMK AO2 SLP201
     T01610100 402560122
FTUS80 KEWR 190233 AAA
KEWR 190230Z 1903/2006 01008KT P6SM SCT090
     FM190600 01012G17KT P6SM SCT070
     FM191200 04012G18KT P6SM FEW030 SCT050
     FM191800 09012KT P6SM FEW035 FEW250
     FM192100 13010KT P6SM SCT035 SCT250
     FM200300 12005KT P6SM SCT035 SCT250
KEWR Forecaster Comments Not Available at This Time
ewr
Afternoon EWR Haze Potential Forecast: KEWR Haze Forecast Not Available at This Time
IS NOT AVAILABLE AT THIS TIME


******************************************************************************

KTEB Terminal Weather:
SAUS80 KTEB 190500
METAR KTEB 190451Z 01004KT 10SM CLR 16/09 A3012 RMK AO2 SLP200 T01610094
     402720106
FTUS80 KTEB 190233 AAC
KTEB 190230Z 1903/1924 35005KT P6SM SCT090
     FM190600 01009KT P6SM SCT070
     FM191400 05011G16KT P6SM FEW030 SCT050
     FM191800 10011KT P6SM FEW035 FEW250
     FM192100 14009KT P6SM SCT035 SCT250
KTEB Forecaster Comments Not Available at This Time
teb

 


**************************************************************************************

KHPN Terminal Weather:
SAUS70 KHPN 190500 RRA
METAR KHPN 190456Z 36009KT 10SM SCT070 15/09 A3013 RMK AO2 SLP198
     T01500094 402390100
FTUS80 KHPN 190233 AAB
KHPN 190230Z 1903/1924 36005KT P6SM SCT090
     FM190600 36010KT P6SM SCT070
     FM191200 04012G16KT P6SM FEW030 SCT050
     FM191800 10012KT P6SM FEW035 FEW250
     FM192100 13011KT P6SM SCT035 SCT250 AMD NOT SKED
KHPN Forecaster Comments Not Available at This Time
HPN


******************************************************************************

KISP Terminal Weather:
SAUS70 KISP 190500
METAR KISP 190456Z AUTO 34005KT 10SM FEW090 14/11 A3011 RMK AO2 SLP194
     T01440111 402390111
FTUS80 KISP 190233 AAB
KISP 190230Z 1903/1924 VRB05KT P6SM SCT070
     FM190600 02010G15KT P6SM SCT070
     FM191200 05014G19KT P6SM FEW030 SCT050
     FM191800 09015KT P6SM SCT035
     FM192100 12012KT P6SM SCT035 SCT250
KISP Forecaster Comments Not Available at This Time
ISP

 


ZNY SWAP Season Information

(ZNY SWAP STATEMENT) (Click for PDF File) (ZNY BRIEFING) (Click for PDF File)

*******************************************************
***        NY AIR ROUTE TRAFFIC CONTROL CENTER      ***
***                DAILY SWAP STATEMENT             ***
*******************************************************
NY AIR ROUTE TRAFFIC CONTROL CENTER
DAILY SWAP STATEMENT
THURSDAY, SEPTEMBER 18, 2014
SWAP IS NOT EXPECTED.

ADDT'L INFO:
AZEZU-PAEPR-HANRI(L453-M201): IMPACTS POSSIBLE. 
DITCH: NO IMPACTS EXPECTED.
EAST GATES: NO IMPACTS EXPECTED 
TOMORROW MORNINGS SWAP OUTLOOK:   SWAP IS NOT EXPECTED.
$$
KS






N90 AirSpace Impacts

N90 ZNY Gate TSTM Forecast    SWAP Day One Forecast

SWAP Day One Forecast    SWAP Day Two Outlook

National Collaborative Convective Forecast Product (CCFP) Forecasts (Mar-Oct)


Vertical Wind Profile
Untitled Document